Time;durP1;ratioP1;P1;durP2;ratioP2;P2;SDS_P1;SDS_P2;PMS_P1;PMS_P2;Temp;Humidity;BMP_temperature;BMP_pressure;BME280_temperature;BME280_humidity;BME280_pressure;Samples;Min_cycle;Max_cycle;Signal;HPM_P1;HPM_P2
2022/10/19 00:01:13;;;;;;;17.00;9.85;;;;;;;8.37;87.45;98263.98;1703744;84;21027;-82
2022/10/19 00:03:41;;;;;;;18.35;10.13;;;;;;;8.32;88.10;98264.91;1691258;83;21065;-84
2022/10/19 00:06:16;;;;;;;18.55;9.20;;;;;;;8.30;88.06;98268.48;1667348;85;21048;-85
2022/10/19 00:08:44;;;;;;;16.07;9.23;;;;;;;8.27;88.46;98272.52;1666598;84;21071;-86
2022/10/19 00:11:12;;;;;;;17.07;9.60;;;;;;;8.24;87.99;98264.19;1683250;84;21420;-85
2022/10/19 00:13:39;;;;;;;14.65;9.25;;;;;;;8.21;87.93;98259.41;1683461;84;21072;-85
2022/10/19 00:16:12;;;;;;;15.20;9.60;;;;;;;8.19;87.91;98264.71;1683483;84;21047;-86
2022/10/19 00:18:44;;;;;;;14.80;9.63;;;;;;;8.16;88.11;98264.31;1683900;84;21118;-86
2022/10/19 00:21:15;;;;;;;15.60;9.03;;;;;;;8.15;88.64;98270.93;1688457;84;21472;-86
2022/10/19 00:23:43;;;;;;;19.98;9.95;;;;;;;8.11;88.62;98263.95;1702828;84;20996;-86
2022/10/19 00:26:10;;;;;;;16.05;9.53;;;;;;;8.09;88.68;98264.44;1713752;83;21405;-87
2022/10/19 00:28:36;;;;;;;17.90;9.23;;;;;;;8.04;88.88;98261.41;1713623;83;21085;-86
2022/10/19 00:31:10;;;;;;;18.20;9.45;;;;;;;8.03;88.54;98253.08;1713920;83;21008;-86
2022/10/19 00:33:38;;;;;;;15.65;9.60;;;;;;;8.01;88.44;98256.16;1713837;83;21116;-86
2022/10/19 00:36:08;;;;;;;12.70;8.23;;;;;;;7.98;88.26;98261.95;1713608;82;20972;-86
2022/10/19 00:38:37;;;;;;;13.45;8.55;;;;;;;7.95;87.88;98250.09;1701337;84;21801;-86
2022/10/19 00:41:05;;;;;;;13.65;8.45;;;;;;;7.91;87.92;98242.69;1702681;84;21414;-87
2022/10/19 00:43:31;;;;;;;16.37;9.00;;;;;;;7.87;87.89;98235.27;1713248;83;21000;-86
2022/10/19 00:45:59;;;;;;;15.65;8.55;;;;;;;7.88;87.80;98240.08;1713434;83;20977;-86
2022/10/19 00:48:30;;;;;;;15.13;8.55;;;;;;;7.88;88.09;98240.08;1713701;84;22181;-86
2022/10/19 00:50:59;;;;;;;14.43;8.63;;;;;;;7.85;87.96;98237.50;1713539;83;20996;-86
2022/10/19 00:53:30;;;;;;;13.35;8.35;;;;;;;7.81;88.47;98231.84;1713547;83;21092;-86
2022/10/19 00:55:59;;;;;;;14.20;7.97;;;;;;;7.79;88.55;98231.86;1713662;84;21000;-86
2022/10/19 00:58:27;;;;;;;13.78;7.28;;;;;;;7.79;88.21;98223.51;1713432;83;21008;-86
2022/10/19 01:00:54;;;;;;;14.10;7.70;;;;;;;7.79;88.17;98223.94;1713855;84;20976;-83
2022/10/19 01:03:20;;;;;;;14.55;8.05;;;;;;;7.82;88.73;98225.23;1713523;83;20992;-83
2022/10/19 01:05:48;;;;;;;13.62;7.72;;;;;;;7.83;88.63;98221.69;1713150;83;21079;-84
2022/10/19 01:08:17;;;;;;;14.05;7.75;;;;;;;7.84;88.90;98223.42;1713219;83;21108;-84
2022/10/19 01:11:24;;;;;;;13.00;6.72;;;;;;;7.88;88.44;98217.65;1713348;84;21009;-84
2022/10/19 01:14:13;;;;;;;14.25;7.08;;;;;;;7.91;88.33;98222.45;1713712;84;21337;-84
2022/10/19 01:17:14;;;;;;;14.40;7.00;;;;;;;7.92;88.16;98214.08;1713544;83;21048;-84
2022/10/19 01:20:18;;;;;;;11.53;6.80;;;;;;;7.94;87.94;98213.62;1690542;84;20996;-83
2022/10/19 01:23:21;;;;;;;12.20;7.25;;;;;;;7.92;87.96;98208.80;1707824;84;20962;-83
2022/10/19 01:26:15;;;;;;;12.03;7.47;;;;;;;7.90;88.07;98202.69;1713323;83;21028;-83
2022/10/19 01:28:53;;;;;;;12.85;6.75;;;;;;;7.88;88.13;98204.02;1713796;83;21065;-83
2022/10/19 01:31:58;;;;;;;11.90;8.10;;;;;;;7.85;88.02;98208.48;1713226;83;20980;-83
2022/10/19 01:35:08;;;;;;;15.78;6.97;;;;;;;7.79;87.88;98197.13;1714508;82;20997;-83
2022/10/19 01:37:59;;;;;;;13.15;7.00;;;;;;;7.76;87.83;98199.80;1701878;84;20977;-83
2022/10/19 01:40:43;;;;;;;11.08;6.65;;;;;;;7.76;87.93;98197.59;1700691;83;21048;-83
2022/10/19 01:43:48;;;;;;;16.02;7.47;;;;;;;7.73;87.76;98203.79;1718481;83;21048;-83
2022/10/19 01:46:34;;;;;;;10.35;6.12;;;;;;;7.72;87.85;98205.16;1709706;82;20980;-83
2022/10/19 01:49:19;;;;;;;12.30;6.08;;;;;;;7.71;87.72;98196.79;1697530;83;21004;-83
2022/10/19 01:51:50;;;;;;;12.93;6.20;;;;;;;7.72;87.62;98196.77;1709898;83;21649;-83
2022/10/19 01:54:20;;;;;;;10.30;5.97;;;;;;;7.72;87.60;98198.09;1698312;83;21020;-83
2022/10/19 01:56:50;;;;;;;11.28;6.35;;;;;;;7.74;87.56;98189.73;1716616;82;21398;-83
2022/10/19 01:59:19;;;;;;;10.75;6.65;;;;;;;7.75;87.39;98187.94;1717930;83;20970;-83
2022/10/19 02:01:48;;;;;;;11.40;6.62;;;;;;;7.70;87.45;98182.75;1727062;83;22115;-83
2022/10/19 02:04:19;;;;;;;11.65;6.20;;;;;;;7.66;87.17;98178.41;1726936;82;21401;-83
2022/10/19 02:06:46;;;;;;;9.58;6.47;;;;;;;7.65;87.18;98178.84;1727017;83;20956;-83
2022/10/19 02:09:17;;;;;;;13.08;6.90;;;;;;;7.59;87.01;98174.09;1727122;82;21394;-83
2022/10/19 02:11:41;;;;;;;12.95;7.28;;;;;;;7.56;87.10;98186.88;1726569;83;21508;-83
2022/10/19 02:14:13;;;;;;;13.70;7.10;;;;;;;7.51;86.99;98168.50;1713104;83;21020;-83
2022/10/19 02:16:50;;;;;;;12.95;8.00;;;;;;;7.42;86.92;98166.46;1721493;83;21134;-84
2022/10/19 02:19:20;;;;;;;12.63;7.22;;;;;;;7.34;87.15;98173.13;1727035;82;21055;-83
2022/10/19 02:21:47;;;;;;;10.60;6.10;;;;;;;7.27;86.68;98175.00;1727172;83;21071;-83
2022/10/19 02:24:15;;;;;;;12.50;6.55;;;;;;;7.21;87.14;98179.91;1714762;83;21000;-84
2022/10/19 02:26:42;;;;;;;16.35;6.97;;;;;;;7.17;87.20;98187.41;1719842;83;21406;-83
2022/10/19 02:29:13;;;;;;;12.95;6.85;;;;;;;7.13;88.51;98189.66;1727195;82;21420;-83
2022/10/19 02:31:42;;;;;;;10.88;6.72;;;;;;;7.10;87.37;98193.20;1726610;83;21560;-83
2022/10/19 02:34:10;;;;;;;12.80;7.15;;;;;;;7.10;87.72;98190.57;1719069;83;21532;-83
2022/10/19 02:36:36;;;;;;;12.78;7.20;;;;;;;7.08;87.54;98191.05;1727377;82;21008;-83
2022/10/19 02:39:03;;;;;;;10.93;7.47;;;;;;;7.06;87.70;98184.91;1727337;83;20976;-82
2022/10/19 02:41:41;;;;;;;12.55;7.40;;;;;;;7.01;87.97;98190.67;1727079;82;20960;-82
2022/10/19 02:44:22;;;;;;;12.93;7.20;;;;;;;6.97;88.22;98190.28;1712989;83;21025;-83
2022/10/19 02:47:00;;;;;;;13.30;7.33;;;;;;;6.93;88.51;98193.41;1713239;83;20988;-82
2022/10/19 02:49:29;;;;;;;10.68;6.65;;;;;;;6.89;88.34;98189.52;1692699;83;21474;-84
2022/10/19 02:52:03;;;;;;;12.88;7.12;;;;;;;6.88;88.39;98194.37;1696605;84;21031;-84
2022/10/19 02:54:33;;;;;;;14.55;7.50;;;;;;;6.85;88.12;98193.50;1713394;83;21474;-83
2022/10/19 02:57:00;;;;;;;12.90;7.10;;;;;;;6.83;88.56;98197.04;1713628;83;20965;-83
2022/10/19 02:59:27;;;;;;;10.23;6.62;;;;;;;6.79;88.77;98188.31;1713781;83;21038;-84
2022/10/19 03:01:53;;;;;;;11.85;7.05;;;;;;;6.76;88.57;98190.97;1713951;83;20974;-84
2022/10/19 03:04:23;;;;;;;15.48;7.10;;;;;;;6.73;88.95;98194.50;1713745;83;20968;-84
2022/10/19 03:06:50;;;;;;;12.88;7.62;;;;;;;6.70;89.38;98194.55;1713776;83;21016;-85
2022/10/19 03:09:18;;;;;;;10.70;6.03;;;;;;;6.71;89.19;98191.03;1713774;83;20988;-84
2022/10/19 03:11:45;;;;;;;11.95;6.72;;;;;;;6.71;89.56;98190.14;1713886;83;21033;-84
2022/10/19 03:14:11;;;;;;;11.18;6.20;;;;;;;6.73;88.97;98194.97;1713923;83;21449;-84
2022/10/19 03:16:37;;;;;;;10.80;6.35;;;;;;;6.73;88.98;98195.82;1713811;83;21000;-84
2022/10/19 03:19:04;;;;;;;15.45;5.97;;;;;;;6.72;89.02;98183.98;1713871;83;21020;-84
2022/10/19 03:21:30;;;;;;;11.25;5.65;;;;;;;6.73;88.60;98193.19;1713835;83;21371;-85
2022/10/19 03:24:00;;;;;;;8.95;6.33;;;;;;;6.76;88.57;98190.11;1696296;84;21020;-85
2022/10/19 03:26:29;;;;;;;10.08;6.10;;;;;;;6.77;88.32;98191.84;1696600;84;21422;-83
2022/10/19 03:28:57;;;;;;;11.33;6.17;;;;;;;6.75;88.49;98182.64;1699724;83;20953;-83
2022/10/19 03:31:26;;;;;;;10.40;5.62;;;;;;;6.76;88.30;98178.26;1696296;84;20981;-83
2022/10/19 03:33:53;;;;;;;10.88;6.12;;;;;;;6.74;88.31;98187.02;1713611;83;21008;-83
2022/10/19 03:36:33;;;;;;;10.55;6.05;;;;;;;6.75;88.16;98187.91;1713031;82;21059;-83
2022/10/19 03:39:07;;;;;;;7.70;5.45;;;;;;;6.75;88.26;98183.95;1713291;83;21419;-83
2022/10/19 03:41:36;;;;;;;9.78;6.03;;;;;;;6.73;88.09;98173.89;1713384;84;21037;-84
2022/10/19 03:44:06;;;;;;;9.53;5.50;;;;;;;6.72;88.17;98170.38;1713621;83;20980;-83
2022/10/19 03:46:35;;;;;;;7.83;4.85;;;;;;;6.71;88.38;98173.91;1713545;84;20937;-83
2022/10/19 03:49:06;;;;;;;10.32;6.03;;;;;;;6.71;88.33;98171.27;1693558;83;21517;-83
2022/10/19 03:51:34;;;;;;;8.98;5.58;;;;;;;6.71;88.14;98177.86;1713460;83;21004;-85
2022/10/19 03:54:05;;;;;;;10.32;5.00;;;;;;;6.72;87.92;98173.02;1713077;84;21632;-84
2022/10/19 03:56:35;;;;;;;7.40;4.45;;;;;;;6.77;87.75;98172.09;1714176;84;21032;-83
2022/10/19 03:59:05;;;;;;;7.35;4.53;;;;;;;6.73;87.25;98164.22;1713463;84;21072;-83
2022/10/19 04:01:36;;;;;;;11.30;5.40;;;;;;;6.74;87.44;98171.22;1713501;84;20999;-84
2022/10/19 04:04:14;;;;;;;15.78;5.58;;;;;;;6.77;87.29;98167.67;1713634;83;21406;-84
2022/10/19 04:06:46;;;;;;;9.90;4.87;;;;;;;6.78;87.18;98168.56;1713327;84;21075;-83
2022/10/19 04:09:17;;;;;;;10.18;5.58;;;;;;;6.76;86.97;98165.94;1713204;84;20952;-84
2022/10/19 04:11:47;;;;;;;10.45;5.95;;;;;;;6.74;86.97;98167.27;1713822;83;21497;-84
2022/10/19 04:14:16;;;;;;;12.70;5.37;;;;;;;6.70;86.96;98162.06;1713768;83;20968;-83
2022/10/19 04:16:42;;;;;;;8.05;5.65;;;;;;;6.64;86.95;98155.09;1713536;84;20981;-84
2022/10/19 04:19:15;;;;;;;11.33;5.58;;;;;;;6.57;86.93;98153.44;1713822;84;20944;-84
2022/10/19 04:21:43;;;;;;;11.20;6.12;;;;;;;6.54;86.85;98153.45;1713716;84;21410;-83
2022/10/19 04:24:16;;;;;;;12.82;5.35;;;;;;;6.50;86.79;98154.37;1713657;83;20972;-84
2022/10/19 04:26:52;;;;;;;10.40;6.12;;;;;;;6.46;86.72;98146.52;1713249;84;20949;-84
2022/10/19 04:29:23;;;;;;;8.08;5.40;;;;;;;6.42;86.82;98137.34;1713674;83;21025;-84
2022/10/19 04:31:51;;;;;;;12.05;5.67;;;;;;;6.38;86.63;98138.25;1713720;83;21401;-84
2022/10/19 04:34:18;;;;;;;8.93;5.75;;;;;;;6.34;86.92;98136.98;1713328;82;20981;-84
2022/10/19 04:36:45;;;;;;;9.85;5.62;;;;;;;6.30;86.50;98126.49;1713434;84;20992;-84
2022/10/19 04:39:12;;;;;;;12.23;5.50;;;;;;;6.29;86.47;98127.39;1713418;84;21000;-85
2022/10/19 04:41:40;;;;;;;10.68;6.15;;;;;;;6.26;86.62;98130.03;1713482;83;21414;-83
2022/10/19 04:44:08;;;;;;;9.63;5.50;;;;;;;6.23;86.63;98130.09;1701250;84;21056;-83
2022/10/19 04:46:36;;;;;;;15.85;5.97;;;;;;;6.19;86.40;98126.16;1704648;84;21023;-83
2022/10/19 04:49:05;;;;;;;9.75;6.10;;;;;;;6.20;86.34;98132.30;1693318;83;21023;-83
2022/10/19 04:51:32;;;;;;;9.35;5.45;;;;;;;6.19;86.32;98128.79;1713711;83;20993;-84
2022/10/19 04:54:03;;;;;;;10.03;5.65;;;;;;;6.18;86.30;98132.74;1713688;83;20976;-84
2022/10/19 04:56:31;;;;;;;16.12;5.50;;;;;;;6.17;86.33;98127.06;1713540;84;20998;-84
2022/10/19 04:59:00;;;;;;;10.25;5.47;;;;;;;6.17;86.38;98123.11;1713508;83;21048;-84
2022/10/19 05:01:34;;;;;;;11.70;5.60;;;;;;;6.20;86.27;98131.84;1713795;83;21056;-84
2022/10/19 05:04:02;;;;;;;10.35;5.33;;;;;;;6.24;86.17;98125.25;1713622;83;21013;-82
2022/10/19 05:06:31;;;;;;;8.30;5.30;;;;;;;6.28;85.92;98131.80;1713865;84;21035;-82
2022/10/19 05:08:59;;;;;;;9.78;5.60;;;;;;;6.30;85.92;98123.86;1713409;83;21011;-82
2022/10/19 05:11:27;;;;;;;12.13;5.12;;;;;;;6.34;85.75;98123.83;1713636;83;21285;-82
2022/10/19 05:13:55;;;;;;;11.03;5.70;;;;;;;6.37;85.52;98118.09;1713500;83;20988;-83
2022/10/19 05:16:24;;;;;;;11.43;5.65;;;;;;;6.40;85.43;98123.33;1702086;84;21040;-85
2022/10/19 05:18:58;;;;;;;11.20;6.00;;;;;;;6.41;85.21;98114.11;1696982;84;21048;-84
2022/10/19 05:21:27;;;;;;;11.53;5.37;;;;;;;6.40;85.10;98121.55;1685361;84;20985;-85
2022/10/19 05:23:55;;;;;;;8.88;5.58;;;;;;;6.40;84.81;98138.66;1685249;84;21008;-84
2022/10/19 05:26:25;;;;;;;9.35;6.12;;;;;;;6.41;84.31;98131.66;1685177;84;20977;-85
2022/10/19 05:28:55;;;;;;;11.15;5.90;;;;;;;6.41;84.50;98129.91;1685293;84;21088;-85
2022/10/19 05:31:25;;;;;;;12.58;5.85;;;;;;;6.42;84.34;98128.13;1685457;84;21048;-84
2022/10/19 05:33:52;;;;;;;12.55;6.50;;;;;;;6.44;84.30;98125.05;1685330;84;21118;-83
2022/10/19 05:36:31;;;;;;;12.55;5.70;;;;;;;6.43;83.95;98122.85;1690084;82;21383;-82
2022/10/19 05:39:05;;;;;;;12.63;6.28;;;;;;;6.43;83.94;98121.53;1692177;84;21024;-82
2022/10/19 05:41:32;;;;;;;12.88;6.72;;;;;;;6.47;83.62;98119.30;1691144;83;21028;-81
2022/10/19 05:44:02;;;;;;;13.90;6.47;;;;;;;6.47;83.22;98123.25;1688866;83;21417;-81
2022/10/19 05:46:31;;;;;;;11.68;5.70;;;;;;;6.49;82.96;98124.98;1690809;83;21397;-81
2022/10/19 05:48:59;;;;;;;16.70;6.08;;;;;;;6.52;83.06;98131.55;1692422;83;21044;-81
2022/10/19 05:51:27;;;;;;;18.50;6.33;;;;;;;6.51;82.36;98131.98;1719377;83;21446;-81
2022/10/19 05:53:56;;;;;;;13.55;6.85;;;;;;;6.53;82.42;98136.80;1719501;83;21433;-81
2022/10/19 05:56:26;;;;;;;17.35;6.65;;;;;;;6.56;82.16;98131.48;1719389;82;21052;-81
2022/10/19 05:58:55;;;;;;;12.58;6.40;;;;;;;6.61;82.20;98130.12;1719396;83;21011;-81
2022/10/19 06:01:22;;;;;;;12.73;6.20;;;;;;;6.66;81.94;98127.43;1718936;83;21005;-81
2022/10/19 06:03:55;;;;;;;11.53;5.33;;;;;;;6.71;82.01;98134.40;1699713;82;21024;-81
2022/10/19 06:06:23;;;;;;;7.90;5.33;;;;;;;6.78;81.58;98136.95;1690750;83;21472;-81
2022/10/19 06:08:52;;;;;;;11.65;5.37;;;;;;;6.84;81.47;98142.14;1690749;83;20953;-82
2022/10/19 06:11:26;;;;;;;11.78;5.50;;;;;;;6.91;81.44;98133.28;1690988;83;20937;-81
2022/10/19 06:13:58;;;;;;;10.38;4.83;;;;;;;6.99;81.50;98130.55;1690800;83;21333;-81
2022/10/19 06:16:26;;;;;;;10.68;4.78;;;;;;;7.06;80.33;98130.88;1690768;83;20933;-82
2022/10/19 06:18:54;;;;;;;12.10;4.92;;;;;;;7.14;81.14;98137.36;1690779;83;21525;-82
2022/10/19 06:21:28;;;;;;;8.50;4.95;;;;;;;7.22;81.04;98138.58;1696746;83;21603;-83
2022/10/19 06:24:01;;;;;;;11.45;5.20;;;;;;;7.30;81.02;98143.77;1690261;83;21104;-81
2022/10/19 06:26:30;;;;;;;11.33;5.15;;;;;;;7.37;80.76;98135.75;1690648;83;20965;-81
2022/10/19 06:28:59;;;;;;;11.28;5.35;;;;;;;7.48;80.45;98136.04;1698368;83;21039;-80
2022/10/19 06:31:29;;;;;;;8.15;5.17;;;;;;;7.56;80.40;98130.18;1690936;83;21374;-80
2022/10/19 06:33:56;;;;;;;11.35;6.05;;;;;;;7.64;79.10;98126.98;1702485;83;21059;-81
2022/10/19 06:36:27;;;;;;;8.33;4.85;;;;;;;7.69;78.10;98136.17;1693844;83;21378;-79
2022/10/19 06:38:55;;;;;;;12.07;5.85;;;;;;;7.75;77.88;98137.38;1694427;83;21019;-76
2022/10/19 06:41:22;;;;;;;10.10;5.83;;;;;;;7.81;77.82;98128.94;1698104;83;21442;-78
2022/10/19 06:43:54;;;;;;;12.55;5.45;;;;;;;7.88;78.03;98130.12;1691936;83;20991;-77
2022/10/19 06:46:23;;;;;;;8.78;5.42;;;;;;;7.93;77.44;98120.37;1690692;83;20980;-80
2022/10/19 06:48:58;;;;;;;19.42;6.62;;;;;;;8.00;77.65;98133.02;1697204;83;20984;-80
2022/10/19 06:51:28;;;;;;;12.28;6.42;;;;;;;8.08;78.22;98130.24;1707659;83;21391;-78
2022/10/19 06:53:54;;;;;;;16.12;6.37;;;;;;;8.17;78.25;98131.84;1690693;83;20965;-79
2022/10/19 06:56:23;;;;;;;11.35;6.28;;;;;;;8.24;78.09;98121.61;1695698;83;21513;-82
2022/10/19 06:58:52;;;;;;;14.15;6.37;;;;;;;8.32;77.90;98118.83;1691198;83;21394;-79
2022/10/19 07:01:19;;;;;;;14.33;6.55;;;;;;;8.40;77.80;98123.53;1694093;83;20980;-79
2022/10/19 07:03:48;;;;;;;14.40;6.85;;;;;;;8.49;77.98;98121.59;1696511;83;21520;-79
2022/10/19 07:06:14;;;;;;;15.58;6.40;;;;;;;8.63;77.93;98127.52;1704745;83;21055;-79
2022/10/19 07:08:43;;;;;;;45.85;21.52;;;;;;;8.73;78.29;98121.61;1689417;83;21035;-79
2022/10/19 07:11:16;;;;;;;11.88;7.08;;;;;;;8.85;77.91;98123.14;1690420;83;21521;-78
2022/10/19 07:13:43;;;;;;;11.10;5.37;;;;;;;8.96;75.40;98121.56;1690439;83;21441;-79
2022/10/19 07:16:14;;;;;;;11.20;5.12;;;;;;;9.08;75.53;98120.44;1690340;83;20949;-79
2022/10/19 07:18:42;;;;;;;13.25;5.83;;;;;;;9.20;74.22;98117.98;1690616;83;21767;-80
2022/10/19 07:21:13;;;;;;;12.28;5.58;;;;;;;9.31;73.40;98118.63;1694834;83;20977;-80
2022/10/19 07:23:43;;;;;;;14.83;6.15;;;;;;;9.44;74.06;98105.99;1705453;83;21434;-80
2022/10/19 07:26:22;;;;;;;14.35;6.00;;;;;;;9.60;74.44;98114.89;1690787;83;20929;-80
2022/10/19 07:28:50;;;;;;;10.53;5.85;;;;;;;9.77;74.33;98102.58;1706898;83;21044;-80
2022/10/19 07:31:20;;;;;;;9.43;5.58;;;;;;;9.98;72.20;98109.11;1690611;83;21032;-79
2022/10/19 07:33:53;;;;;;;11.40;5.75;;;;;;;10.13;72.82;98087.13;1693005;83;21024;-79
2022/10/19 07:36:20;;;;;;;54.30;8.28;;;;;;;10.25;72.55;98095.17;1691044;83;20980;-80
2022/10/19 07:38:46;;;;;;;13.75;6.17;;;;;;;10.37;71.78;98094.86;1690946;83;21019;-79
2022/10/19 07:41:17;;;;;;;14.80;5.80;;;;;;;10.51;71.63;98098.47;1691023;83;21031;-80
2022/10/19 07:43:46;;;;;;;11.85;5.33;;;;;;;10.64;70.66;98089.75;1690842;83;21020;-80
2022/10/19 07:46:17;;;;;;;11.78;5.80;;;;;;;10.77;71.87;98088.05;1691232;83;20988;-79
2022/10/19 07:48:45;;;;;;;9.78;6.10;;;;;;;10.89;71.15;98089.03;1690683;83;21409;-79
2022/10/19 07:51:14;;;;;;;10.88;5.50;;;;;;;10.98;70.90;98080.37;1718821;83;21441;-78
2022/10/19 07:53:41;;;;;;;25.80;15.78;;;;;;;11.05;70.20;98077.97;1719546;83;21374;-81
2022/10/19 07:56:15;;;;;;;24.50;8.83;;;;;;;11.08;70.41;98080.06;1672796;85;21073;-79
2022/10/19 07:58:44;;;;;;;17.73;6.25;;;;;;;11.16;68.99;98069.22;1719594;83;20952;-79
2022/10/19 08:01:15;;;;;;;9.98;5.80;;;;;;;11.29;68.18;98072.83;1699903;82;21015;-80
2022/10/19 08:03:42;;;;;;;10.25;5.35;;;;;;;11.41;68.57;98061.81;1704389;83;21012;-80
2022/10/19 08:06:12;;;;;;;9.40;5.50;;;;;;;11.54;67.56;98064.09;1700441;83;20984;-80
2022/10/19 08:08:40;;;;;;;11.90;6.30;;;;;;;11.67;68.23;98060.09;1693332;83;20988;-81
2022/10/19 08:11:21;;;;;;;10.85;6.20;;;;;;;11.77;68.08;98058.02;1690593;83;21032;-82
2022/10/19 08:13:48;;;;;;;10.85;7.05;;;;;;;11.85;67.30;98051.11;1700474;83;20996;-81
2022/10/19 08:16:29;;;;;;;14.60;6.22;;;;;;;11.93;67.56;98051.73;1696506;83;20992;-80
2022/10/19 08:18:59;;;;;;;16.05;5.90;;;;;;;11.97;66.08;98042.74;1693413;83;21001;-80
2022/10/19 08:21:28;;;;;;;12.60;6.05;;;;;;;12.04;66.24;98033.22;1690702;83;20960;-79
2022/10/19 08:23:55;;;;;;;9.48;6.10;;;;;;;12.21;66.41;98033.98;1690696;83;21004;-79
2022/10/19 08:26:22;;;;;;;11.12;5.92;;;;;;;12.37;65.75;98037.81;1694512;83;20967;-79
2022/10/19 08:28:48;;;;;;;16.05;6.92;;;;;;;12.46;64.29;98042.41;1692506;83;21473;-80
2022/10/19 08:31:19;;;;;;;14.53;6.33;;;;;;;12.52;65.37;98035.52;1692533;83;20965;-81
2022/10/19 08:33:49;;;;;;;12.18;5.58;;;;;;;12.60;65.69;98047.20;1690615;83;21031;-78
2022/10/19 08:36:18;;;;;;;11.05;6.30;;;;;;;12.61;64.28;98049.81;1694565;83;22291;-81
2022/10/19 08:38:47;;;;;;;17.57;6.35;;;;;;;12.65;65.32;98050.55;1690889;83;21008;-80
2022/10/19 08:41:49;;;;;;;11.75;6.05;;;;;;;12.67;65.77;98050.91;1690559;83;20964;-81
2022/10/19 08:44:57;;;;;;;13.20;6.17;;;;;;;12.71;65.12;98041.49;1709314;83;21450;-81
2022/10/19 08:48:01;;;;;;;14.18;7.17;;;;;;;12.73;64.95;98043.17;1710419;84;20999;-82
2022/10/19 08:50:41;;;;;;;11.70;5.95;;;;;;;12.78;64.13;98038.98;1687882;83;20985;-81
2022/10/19 08:53:28;;;;;;;10.30;6.10;;;;;;;12.80;64.00;98039.82;1713926;84;21102;-79
2022/10/19 08:56:09;;;;;;;12.90;6.15;;;;;;;12.78;64.01;98034.55;1713870;83;21009;-83
2022/10/19 08:58:58;;;;;;;17.10;6.10;;;;;;;12.80;63.97;98034.02;1713961;83;20945;-75
2022/10/19 09:01:51;;;;;;;64.82;37.10;;;;;;;12.88;64.60;98032.88;1713703;83;21505;-76
2022/10/19 09:04:32;;;;;;;22.10;10.72;;;;;;;12.97;64.37;98042.28;1677188;85;20994;-76
2022/10/19 09:07:27;;;;;;;15.03;6.87;;;;;;;13.10;65.05;98040.89;1672254;84;21051;-75
2022/10/19 09:09:59;;;;;;;17.60;7.37;;;;;;;13.24;64.04;98036.34;1705169;84;21036;-75
2022/10/19 09:12:39;;;;;;;14.38;6.85;;;;;;;13.39;64.33;98028.22;1713371;83;21052;-75
2022/10/19 09:15:11;;;;;;;16.12;6.90;;;;;;;13.54;64.49;98032.55;1713345;83;21414;-75
2022/10/19 09:17:37;;;;;;;14.28;6.80;;;;;;;13.72;63.40;98024.25;1713065;83;21471;-75
2022/10/19 09:20:25;;;;;;;16.52;7.37;;;;;;;13.93;64.26;98029.14;1696535;84;20977;-74
2022/10/19 09:23:00;;;;;;;18.90;7.33;;;;;;;14.15;64.08;98033.53;1689206;83;20997;-75
2022/10/19 09:25:29;;;;;;;11.35;6.30;;;;;;;14.33;62.29;98026.52;1697458;83;21458;-75
2022/10/19 09:28:07;;;;;;;13.78;6.62;;;;;;;14.46;61.72;98029.53;1696739;84;21040;-75
2022/10/19 09:30:37;;;;;;;12.55;6.35;;;;;;;14.59;61.87;98028.50;1696472;83;21000;-74
2022/10/19 09:33:07;;;;;;;12.82;6.67;;;;;;;14.79;62.71;98024.08;1684777;84;21704;-76
2022/10/19 09:35:38;;;;;;;10.78;6.37;;;;;;;15.02;62.32;98029.67;1684545;84;21080;-75
2022/10/19 09:38:08;;;;;;;13.38;5.85;;;;;;;15.23;63.26;98026.06;1684233;84;21027;-75
2022/10/19 09:40:35;;;;;;;14.15;5.65;;;;;;;15.44;63.09;98022.78;1671102;84;21004;-75
2022/10/19 09:43:20;;;;;;;14.95;6.25;;;;;;;15.62;62.61;98019.70;1685704;84;21521;-75
2022/10/19 09:45:58;;;;;;;11.48;6.30;;;;;;;15.78;63.05;98017.10;1689680;83;21643;-75
2022/10/19 09:48:36;;;;;;;9.80;5.90;;;;;;;15.90;61.51;98019.63;1690194;83;21036;-75
2022/10/19 09:51:13;;;;;;;8.05;5.30;;;;;;;15.92;57.80;98015.54;1697802;83;21132;-75
2022/10/19 09:53:54;;;;;;;7.08;5.37;;;;;;;15.95;59.60;98009.59;1707462;83;21012;-74
2022/10/19 09:56:24;;;;;;;10.28;5.25;;;;;;;16.02;57.85;98007.96;1708038;83;20984;-75
2022/10/19 09:58:56;;;;;;;12.70;6.05;;;;;;;16.02;58.92;98009.30;1703428;83;20984;-75
2022/10/19 10:01:36;;;;;;;7.12;5.28;;;;;;;16.03;58.29;98012.36;1709775;83;20971;-76
2022/10/19 10:04:14;;;;;;;10.98;5.03;;;;;;;16.06;59.28;98014.85;1704582;81;21456;-75
2022/10/19 10:06:44;;;;;;;14.10;4.87;;;;;;;16.07;58.57;98003.23;1695386;83;21007;-75
2022/10/19 10:09:20;;;;;;;8.33;4.67;;;;;;;16.06;58.21;97995.68;1700341;83;21019;-75
2022/10/19 10:11:49;;;;;;;9.15;5.22;;;;;;;16.07;58.52;98000.08;1718281;83;20980;-75
2022/10/19 10:14:30;;;;;;;7.92;4.95;;;;;;;16.07;57.44;98000.56;1722700;83;21058;-76
2022/10/19 10:17:04;;;;;;;10.95;5.65;;;;;;;16.08;56.06;98006.30;1709983;83;20987;-81
2022/10/19 10:19:34;;;;;;;7.53;5.17;;;;;;;16.10;54.39;98002.59;1720924;83;20995;-80
2022/10/19 10:22:03;;;;;;;9.98;5.67;;;;;;;16.13;55.23;97999.36;1721859;83;21035;-81
2022/10/19 10:24:32;;;;;;;13.28;6.25;;;;;;;16.18;56.69;97990.63;1725414;83;21023;-80
2022/10/19 10:27:03;;;;;;;9.93;5.08;;;;;;;16.25;56.31;97996.52;1716476;83;21015;-81
2022/10/19 10:29:36;;;;;;;11.50;5.20;;;;;;;16.25;55.78;97990.71;1713393;83;20951;-80
2022/10/19 10:32:11;;;;;;;8.43;5.27;;;;;;;16.36;57.18;97984.80;1724927;83;21062;-81
2022/10/19 10:35:03;;;;;;;11.33;5.72;;;;;;;16.49;57.11;97977.81;1723689;82;21409;-80
2022/10/19 10:37:44;;;;;;;10.60;5.17;;;;;;;16.81;57.91;97984.19;1712634;83;20984;-80
2022/10/19 10:40:26;;;;;;;8.40;5.28;;;;;;;17.44;56.48;97976.23;1717559;83;21031;-81
2022/10/19 10:42:58;;;;;;;8.63;4.85;;;;;;;18.43;56.00;97972.16;1712479;83;21023;-80
2022/10/19 10:45:30;;;;;;;9.05;6.37;;;;;;;19.19;54.99;97961.16;1718893;82;21477;-81
2022/10/19 10:48:01;;;;;;;9.15;5.10;;;;;;;19.61;54.08;97964.66;1719831;83;21504;-80
2022/10/19 10:50:34;;;;;;;8.60;5.35;;;;;;;19.92;54.37;97962.56;1723216;83;20940;-81
2022/10/19 10:53:28;;;;;;;5.63;4.60;;;;;;;20.13;47.21;97954.00;1720445;83;21016;-81
2022/10/19 10:55:56;;;;;;;6.28;5.20;;;;;;;19.99;48.00;97958.13;1718231;83;21022;-81
2022/10/19 10:58:49;;;;;;;6.85;4.78;;;;;;;19.79;46.45;97957.63;1721457;83;21038;-81
2022/10/19 11:01:21;;;;;;;8.08;5.12;;;;;;;19.75;49.37;97955.65;1718029;83;20975;-80
2022/10/19 11:03:56;;;;;;;9.90;4.70;;;;;;;19.63;49.25;97940.34;1717730;82;21401;-80
2022/10/19 11:06:24;;;;;;;6.33;4.67;;;;;;;19.48;49.60;97950.31;1696217;83;21046;-80
2022/10/19 11:09:05;;;;;;;8.28;4.85;;;;;;;19.35;48.43;97942.22;1709114;83;20975;-80
2022/10/19 11:11:44;;;;;;;6.83;4.33;;;;;;;19.08;49.47;97937.69;1689943;82;21048;-80
2022/10/19 11:14:38;;;;;;;7.47;4.90;;;;;;;18.88;50.56;97944.34;1705627;83;21500;-76
2022/10/19 11:17:12;;;;;;;11.08;4.60;;;;;;;18.74;50.50;97930.82;1711460;83;20980;-76
2022/10/19 11:19:43;;;;;;;10.20;4.70;;;;;;;18.63;50.79;97934.69;1705538;83;20999;-76
2022/10/19 11:22:30;;;;;;;9.80;5.47;;;;;;;18.50;51.71;97940.44;1688169;84;20992;-77
2022/10/19 11:25:24;;;;;;;7.80;5.65;;;;;;;18.33;51.11;97943.70;1708064;83;21115;-82
2022/10/19 11:28:11;;;;;;;9.88;5.03;;;;;;;18.03;50.55;97936.08;1697964;83;20983;-82
2022/10/19 11:30:46;;;;;;;8.63;5.28;;;;;;;17.74;52.33;97929.35;1705543;83;21014;-82
2022/10/19 11:33:38;;;;;;;9.88;5.17;;;;;;;17.61;53.28;97923.00;1715652;83;21027;-83
2022/10/19 11:36:28;;;;;;;10.03;6.47;;;;;;;17.52;53.48;97926.59;1720060;83;20992;-83
2022/10/19 11:39:31;;;;;;;11.43;6.50;;;;;;;17.45;53.75;97916.34;1711098;83;20996;-84
2022/10/19 11:42:18;;;;;;;7.37;5.50;;;;;;;17.39;54.34;97914.88;1705984;83;20983;-83
2022/10/19 11:45:08;;;;;;;8.60;5.58;;;;;;;17.34;54.62;97907.59;1703327;83;20945;-83
2022/10/19 11:47:53;;;;;;;7.83;5.80;;;;;;;17.27;54.57;97910.63;1697707;83;20961;-82
2022/10/19 11:50:40;;;;;;;9.03;6.22;;;;;;;17.24;54.87;97913.97;1700936;83;21031;-82
2022/10/19 11:53:35;;;;;;;8.90;6.55;;;;;;;17.08;54.06;97912.19;1689756;83;21491;-82
2022/10/19 11:56:16;;;;;;;6.90;5.35;;;;;;;16.84;54.32;97903.70;1690497;83;21083;-83
2022/10/19 11:59:12;;;;;;;9.45;6.47;;;;;;;16.72;55.33;97906.59;1689429;83;20992;-82
2022/10/19 12:02:19;;;;;;;8.23;6.47;;;;;;;16.58;55.68;97912.27;1702130;83;22094;-82